Ride Results

dergholm (14-11-2014)
Ride distance: 103.0 km Elevator

Outcomes - dergholm (14-11-2014)
Division No. of Entries Retired / DNE Completed Withdrawn Ineligible V/O Percentage Completed
HW 8 3 4 - - 1 87.50%
MW 13 9 3 1 - - 92.31%
LW 4 1 3 - - - 100.00%
JN 2 - 1 - - 1 50.00%
Totals 27 13 11 1 - 2 88.89%
Results - dergholm (14-11-2014)
No. Rider Horse Place Time Leg Speeds Total
Km/Hr
H/R bpm
Heavyweight
113 Rachael Barnett Shady 1 7:57:00 12.9, 13.8, 11.5 12.96 38, 43, 46, 48 (Avg:45)
310 Rob Vlaanderen Talunga Park Byjaryja 2 (BC) 8:11:00 13.1, 12.9, 11.3 12.59 31, 40, 46, 40 (Avg:42)
135 Tamara Atkinson Mathoura McKinlay 3 8:27:00 12.6, 11.8, 11.9 12.19 44, 48, 49, 50 (Avg:49)
46 Nigel Anderson Glendhu Warlock 4 9:35:00 12.0, 11.2, 8.4 10.75 38, 41, 46, 48 (Avg:45)
65 Carl Adamson Cooroora Bold Dancer Retired/DNE L2 6:52:00 12.6, 10.7 11.65 40, 40, 46 (Avg:43)
268 Lainie Ray Razorback Prince Charming Retired/DNE L2 8:35:00 10.1, 8.6 9.32 29, 40, 40 (Avg:40)
311 Tarrant Smith Luna Retired/DNE L2 8:35:00 10.1, 8.6 9.32 49, 50, 50 (Avg:50)
290 Stephanie Cooper Blue Thunder Lame L1 0:00:00 10.1 - 38, 48 (Avg:48)
Middleweight
70 Jil Bourton Veloce Crusade 1 (BC) 6:32:00 14.9, 17.3, 14.6 15.77 31, 48, 48, 44 (Avg:46)
42 Hans Peuker Marybank Celia 2 6:54:00 16.1, 15.3, 12.6 14.93 34, 44, 48, 48 (Avg:46)
78 Tania Drever Bundaleer Wildfire 3 8:11:00 13.1, 12.9, 11.3 12.59 40, 44, 48, 45 (Avg:45)
97 Tracy Brandon La Danza D'Askari Retired/DNE L2 6:15:00 12.9, 12.6 12.80 39, 49, 58 (Avg:53)
351 Steve Blackhurst Dejarn Khan Retired/DNE L2 6:23:00 13.1, 11.9 12.53 28, 46, 45 (Avg:45)
233 Paul Bryson Alhambra Latiffe Retired/DNE L2 6:30:00 12.6, 11.9 12.31 31, 42, 44 (Avg:43)
756 Fiona Passarin Ennerdale Marquis Retired/DNE L2 6:32:00 12.6, 11.8 12.24 38, 43, 47 (Avg:45)
155 Karen Alderton Odyssey Flame Retired/DNE L2 6:59:00 11.9, 10.9 11.46 36, 46, 59 (Avg:52)
82 Lisa Brown Aquilavale Stardancer Retired/DNE L2 6:59:00 11.9, 10.9 11.46 32, 41, 41 (Avg:41)
41 Sheryl Herbert Krishlah Maleeka Retired/DNE L2 7:03:00 11.5, 11.1 11.35 38, 42, 48 (Avg:45)
181 Sharee Court Makaveli Soulja Retired/DNE L2 7:33:00 11.5, 9.7 10.60 38, 44, 47 (Avg:45)
759 Bronwyn Cuthbertson Just Shakira Retired/DNE L2 7:33:00 11.5, 9.7 10.60 36, 40, 48 (Avg:44)
758 Emma Wouters Kato Widthdrawn L1 0:00:00 - - 42, 48 (Avg:48)
Lightweight
278 Gina Thompson Bellarine Rosebud 1 (BC) 6:32:00 14.9, 17.5, 14.6 15.77 22, 44, 40, 37 (Avg:40)
21 Cheryl Bullock Chip Chase Knight 2 6:57:00 16.1, 16.1, 11.5 14.82 36, 44, 49, 42, 46 (Avg:45)
742 Wal Carman Ningadoo Kafisa 3 8:11:00 13.1, 12.9, 11.3 12.59 35, 42, 45, 49 (Avg:45)
244 Marty Bryson Castlebar Shatan Retired/DNE L2 6:30:00 12.6, 11.9 12.31 33, 38, 40 (Avg:39)
Junior
746 Georgia Curry Aloha Deltoid 1 (BC) 9:35:00 12.0, 11.2, 8.4 10.75 33, 41, 44, 44 (Avg:43)
747 Susanne Wells Carousel Coquette Lame L1 0:00:00 13.1 - 39, 45 (Avg:45)